Nearby METAR Reports

 

LEXJ - Santander/Paraya, Spain
Distancia a la estación: ESE 6km
Actualizado: 24/08/2017 10:30
Parcialmente nuboso
Parcialmente nuboso
 Viento del varies
Viento: varies 2 km/h
Temperatura: 21°C
Rocío: 18°C
Humedad: 83%
Barómetro: 1016 hPa
Nubes: Parcialmente nuboso
Visibilidad: 10 km
Detalle Nubes: Parcialmente nuboso 1097 m
2017/08/24 08:30 LEXJ 240830Z VRB01KT 9999 SCT036 21/18 Q1016
LEBB - Bilbao/Sondica, Spain
Distancia a la estación: ESE 80km
Actualizado: 24/08/2017 10:30
Muy nuboso
Muy nuboso
 Viento del calm
Viento: Calma
Temperatura: 22°C
Rocío: 19°C
Humedad: 83%
Barómetro: 1017 hPa
Nubes: Muy nuboso
Visibilidad: 9 km
Detalle Nubes: Parcialmente nuboso 305 m
Muy nuboso 457 m
2017/08/24 08:30 LEBB 240830Z 00000KT 9000 SCT010 BKN015 22/19 Q1017 TEMPO 3000 DZ
 
LEZG - Zaragoza (mil/Ci, Spain
Distancia a la estación: NNE 176km
Actualizado: 24/08/2017 10:30
Nubes dispersas
Nubes dispersas
 Viento del E
Viento: E 11 km/h
Temperatura: 26°C
Rocío: 17°C
Humedad: 58%
Barómetro: 1017 hPa
Nubes: Nubes dispersas
Visibilidad: 10 km
Detalle Nubes: Nubes dispersas 1219 m
2017/08/24 08:30 LEZG 240830Z 09006KT 9999 FEW040 26/17 Q1017
LEVT - Vitoria, Spain
Distancia a la estación: ESE 114km
Actualizado: 24/08/2017 10:30
Despejado
Despejado
 Viento del calm
Viento: Calma
Temperatura: 22°C
Rocío: 15°C
Humedad: 65%
Barómetro: 1018 hPa
Resumen: Despejado
Visibilidad: greater than 10 km
2017/08/24 08:30 LEVT 240830Z 00000KT CAVOK 22/15 Q1018
 
LEBG - Burgos/Villafria, Spain
Distancia a la estación: S 122km
Actualizado: 24/08/2017 10:30
Nubes dispersas
Nubes dispersas
 Viento del varies
Viento: varies 4 km/h
Temperatura: 19°C
Rocío: 14°C
Humedad: 73%
Barómetro: 1018 hPa
Nubes: Nubes dispersas
Visibilidad: 10 km
Detalle Nubes: Nubes dispersas 152 m
2017/08/24 08:30 LEBG 240830Z VRB02KT 9999 FEW005 19/14 Q1018
LELO - Logrono/Agoncill, Spain
Distancia a la estación: SE 169km
Actualizado: 24/08/2017 10:00
Despejado
Despejado
 Viento del ENE
Viento: ENE 15 km/h
Temperatura: 22°C
Rocío: 16°C
Humedad: 69%
Barómetro: 1017 hPa
Resumen: Despejado
Visibilidad: greater than 10 km
2017/08/24 08:00 LELO 240800Z 07008KT 020V110 CAVOK 22/16 Q1017
 
LESO - San Sebastian/Fu, Spain
Distancia a la estación: E 169km
Actualizado: 24/08/2017 10:30
Muy nuboso
Muy nuboso
 Viento del varies
Viento: varies 2 km/h
Temperatura: 24°C
Rocío: 20°C
Humedad: 78%
Barómetro: 1016 hPa
Nubes: Muy nuboso
Visibilidad: 10 km
Detalle Nubes: Parcialmente nuboso 335 m
Muy nuboso 610 m
2017/08/24 08:30 LESO 240830Z VRB01KT 9999 SCT011 BKN020 24/20 Q1016
LEAS - Asturias/Aviles, Spain
Distancia a la estación: O 172km
Actualizado: 24/08/2017 10:30
Niebla, Lluvia débil, Cubierto
Niebla, Lluvia débil, Cubierto
 Viento del NE
Viento: NE 6 km/h
Temperatura: 18°C
Rocío: 18°C
Humedad: 100%
Barómetro: 1017 hPa
Resumen: Niebla, Lluvia débil
Nubes: Cubierto
Visibilidad: 1 km
Detalle Nubes: Cubierto 30 m
2017/08/24 08:30 LEAS 240830Z 05003KT 330V110 0800 R29/1100N R11/1500D FG -RA VV001 18/18 Q1017 TEMPO 2000 BR BKN005
 
LELN - Leon/Virgen Cami, Spain
Distancia a la estación: SO 174km
Actualizado: 24/08/2017 10:00
Despejado
Despejado
 Viento del ENE
Viento: ENE 9 km/h
Temperatura: 20°C
Rocío: 13°C
Humedad: 64%
Barómetro: 1018 hPa
Resumen: Despejado
Visibilidad: greater than 10 km
2017/08/24 08:00 LELN 240800Z 06005KT 020V100 CAVOK 20/13 Q1018
LFBZ - Biarritz/Anglet, France
Distancia a la estación: E 191km
Actualizado: 24/08/2017 10:30
Cubierto
Cubierto
 Viento del E
Viento: E 6 km/h
Temperatura: 22°C
Rocío: 19°C
Humedad: 83%
Barómetro: 1017 hPa
Nubes: Cubierto
Visibilidad: 10 km
Detalle Nubes: Parcialmente nuboso 366 m
Cubierto 640 m
2017/08/24 08:30 LFBZ 240830Z AUTO 09003KT 040V150 9999 SCT012 OVC021 22/19 Q1017 BECMG 33010KT
 
LEPP - Pamplona/Noain, Spain
Distancia a la estación: ESE 199km
Actualizado: 24/08/2017 10:30
Despejado
Despejado
 Viento del calm
Viento: Calma
Temperatura: 24°C
Rocío: 15°C
Humedad: 57%
Barómetro: 1018 hPa
Resumen: Despejado
Visibilidad: greater than 10 km
2017/08/24 08:30 LEPP 240830Z 00000KT CAVOK 24/15 Q1018
LEBL - Barcelona Airpor, Spain
Distancia a la estación: ESE 554km
Actualizado: 24/08/2017 10:30
Nubes dispersas
Nubes dispersas
 Viento del OSO
Viento: OSO 19 km/h
Temperatura: 27°C
Heat Index: 29°C
Rocío: 22°C
Humedad: 74%
Barómetro: 1017 hPa
Nubes: Nubes dispersas
Visibilidad: 10 km
Detalle Nubes: Nubes dispersas 610 m
2017/08/24 08:30 LEBL 240830Z 25010KT 220V280 9999 FEW020 27/22 Q1017 NOSIG
 
LEMD - Madrid/Barajas, Spain
Distancia a la estación: S 325km
Actualizado: 24/08/2017 10:30
Despejado
Despejado
 Viento del S
Viento: S 4 km/h
Temperatura: 26°C
Rocío: 12°C
Humedad: 42%
Barómetro: 1018 hPa
Resumen: Despejado
Visibilidad: greater than 10 km
2017/08/24 08:30 LEMD 240830Z 19002KT CAVOK 26/12 Q1018 NOSIG
LPPT - Lisbon/Portela, Portugal
Distancia a la estación: SO 663km
Actualizado: 24/08/2017 10:30
Nubes dispersas
Nubes dispersas
 Viento del NNO
Viento: NNO 13 km/h
Temperatura: 20°C
Rocío: 15°C
Humedad: 73%
Barómetro: 1018 hPa
Nubes: Nubes dispersas
Visibilidad: 10 km
Detalle Nubes: Nubes dispersas 488 m
2017/08/24 08:30 LPPT 240830Z 34007KT 320V020 9999 FEW016 20/15 Q1018
 
LECO - La Coruna/Alvedr, Spain
Distancia a la estación: O 349km
Actualizado: 24/08/2017 10:30
Mist, Cubierto
Mist, Cubierto
 Viento del N
Viento: N 9 km/h
Temperatura: 18°C
Rocío: 17°C
Humedad: 94%
Barómetro: 1018 hPa
Resumen: Mist
Nubes: Cubierto
Visibilidad: 3 km
Detalle Nubes: Cubierto 61 m
2017/08/24 08:30 LECO 240830Z 35005KT 320V030 2500 BR OVC002 18/17 Q1018 TEMPO 5000 BKN010
LEST - Santiago/Labacol, Spain
Distancia a la estación: O 358km
Actualizado: 24/08/2017 10:30
Muy nuboso
Muy nuboso
 Viento del N
Viento: N 11 km/h
Temperatura: 19°C
Rocío: 17°C
Humedad: 88%
Barómetro: 1018 hPa
Nubes: Muy nuboso
Visibilidad: 10 km
Detalle Nubes: Parcialmente nuboso 213 m
Muy nuboso 366 m
Muy nuboso 914 m
2017/08/24 08:30 LEST 240830Z 01006KT 330V040 9999 SCT007 BKN012 BKN030 19/17 Q1018 NOSIG